Time;durP1;ratioP1;P1;durP2;ratioP2;P2;SDS_P1;SDS_P2;PMS_P1;PMS_P2;Temp;Humidity;BMP_temperature;BMP_pressure;BME280_temperature;BME280_humidity;BME280_pressure;Samples;Min_cycle;Max_cycle;Signal;HPM_P1;HPM_P2
2022/07/08 00:01:33;;;;;;;3.05;2.08;;;;;;;14.22;100.00;99849.84;5092511;28;20055;-48
2022/07/08 00:04:00;;;;;;;4.10;2.30;;;;;;;14.24;100.00;99855.81;5092277;28;20511;-51
2022/07/08 00:06:27;;;;;;;7.25;2.92;;;;;;;14.17;100.00;99851.00;5092228;28;20550;-49
2022/07/08 00:08:53;;;;;;;7.00;2.40;;;;;;;14.18;100.00;99860.06;5092459;28;20117;-49
2022/07/08 00:11:19;;;;;;;5.05;2.67;;;;;;;14.08;100.00;99861.47;5092205;28;20539;-48
2022/07/08 00:13:45;;;;;;;4.32;2.42;;;;;;;14.10;100.00;99859.97;5092341;28;20127;-50
2022/07/08 00:16:12;;;;;;;3.85;2.47;;;;;;;14.05;100.00;99856.72;5092355;28;20048;-49
2022/07/08 00:18:38;;;;;;;5.05;2.70;;;;;;;13.97;100.00;99871.56;5092097;28;20185;-49
2022/07/08 00:21:04;;;;;;;3.92;2.65;;;;;;;13.91;100.00;99860.06;5092419;28;20052;-50
2022/07/08 00:23:32;;;;;;;3.97;2.30;;;;;;;13.82;100.00;99859.50;5092507;28;20052;-48
2022/07/08 00:25:58;;;;;;;6.32;2.50;;;;;;;13.88;100.00;99858.81;5092250;28;20203;-49
2022/07/08 00:28:24;;;;;;;7.88;3.17;;;;;;;13.85;100.00;99853.25;5092219;28;20159;-48
2022/07/08 00:30:51;;;;;;;4.07;2.78;;;;;;;13.86;100.00;99850.16;5092203;28;20434;-48
2022/07/08 00:33:17;;;;;;;7.70;3.25;;;;;;;13.75;100.00;99854.69;5091769;28;20551;-48
2022/07/08 00:35:43;;;;;;;9.02;2.50;;;;;;;13.79;100.00;99851.97;5091998;28;20461;-48
2022/07/08 00:38:09;;;;;;;6.22;3.08;;;;;;;13.75;100.00;99848.38;5092112;28;20513;-49
2022/07/08 00:40:36;;;;;;;8.98;3.45;;;;;;;13.78;100.00;99853.94;5091136;28;20074;-50
2022/07/08 00:43:03;;;;;;;3.92;2.80;;;;;;;13.82;100.00;99842.97;5091139;28;20138;-51
2022/07/08 00:45:29;;;;;;;3.55;2.55;;;;;;;13.83;100.00;99836.31;5090829;28;20180;-50
2022/07/08 00:47:55;;;;;;;3.35;2.53;;;;;;;13.83;100.00;99836.31;5091040;28;20044;-48
2022/07/08 00:50:22;;;;;;;5.63;3.10;;;;;;;13.77;100.00;99837.78;5090920;28;20150;-49
2022/07/08 00:52:49;;;;;;;5.82;2.60;;;;;;;13.81;100.00;99831.16;5090056;28;20139;-49
2022/07/08 00:55:16;;;;;;;3.78;2.25;;;;;;;13.83;100.00;99839.88;5091504;28;20063;-48
2022/07/08 00:57:43;;;;;;;5.65;3.50;;;;;;;13.82;100.00;99832.75;5091441;28;20097;-49
2022/07/08 01:00:10;;;;;;;5.90;2.30;;;;;;;13.78;100.00;99831.91;5091459;28;20091;-49
2022/07/08 01:02:36;;;;;;;4.93;3.03;;;;;;;13.83;100.00;99834.34;5091382;28;20048;-49
2022/07/08 01:05:03;;;;;;;8.10;2.78;;;;;;;13.83;100.00;99830.81;5091315;28;20142;-48
2022/07/08 01:07:30;;;;;;;5.18;2.33;;;;;;;13.89;100.00;99830.13;5091283;28;20091;-49
2022/07/08 01:09:58;;;;;;;4.30;2.70;;;;;;;13.96;100.00;99828.59;5091676;28;20044;-47
2022/07/08 01:12:25;;;;;;;3.67;2.35;;;;;;;14.04;100.00;99833.06;5091303;28;20486;-45
2022/07/08 01:14:52;;;;;;;5.30;2.80;;;;;;;14.07;100.00;99822.09;5091359;28;20090;-47
2022/07/08 01:17:18;;;;;;;4.95;2.88;;;;;;;14.06;100.00;99831.53;5091058;28;20048;-47
2022/07/08 01:19:44;;;;;;;9.75;3.25;;;;;;;14.16;100.00;99821.84;5091397;28;20048;-47
2022/07/08 01:22:11;;;;;;;3.75;2.60;;;;;;;14.14;100.00;99824.16;5091021;28;20110;-49
2022/07/08 01:24:37;;;;;;;3.72;2.50;;;;;;;14.33;100.00;99820.47;5091048;28;20048;-47
2022/07/08 01:27:04;;;;;;;3.58;2.55;;;;;;;14.32;100.00;99825.19;5091034;28;20079;-46
2022/07/08 01:29:30;;;;;;;8.82;2.40;;;;;;;14.44;100.00;99832.44;5091028;28;20400;-47
2022/07/08 01:32:00;;;;;;;5.40;2.90;;;;;;;14.44;100.00;99834.41;5090914;28;20079;-47
2022/07/08 01:34:26;;;;;;;3.00;2.50;;;;;;;14.50;100.00;99832.91;5091140;28;20055;-46
2022/07/08 01:36:52;;;;;;;5.20;2.58;;;;;;;14.61;100.00;99847.66;5091023;28;20051;-48
2022/07/08 01:39:19;;;;;;;5.95;2.80;;;;;;;14.65;100.00;99851.25;5090919;28;20047;-48
2022/07/08 01:41:45;;;;;;;4.40;2.58;;;;;;;14.71;100.00;99860.78;5090775;28;20497;-49
2022/07/08 01:44:12;;;;;;;7.40;3.15;;;;;;;14.66;100.00;99863.06;5090736;28;20051;-47
2022/07/08 01:46:38;;;;;;;8.77;2.25;;;;;;;14.76;100.00;99862.41;5091100;28;20156;-47
2022/07/08 01:49:05;;;;;;;5.28;2.60;;;;;;;14.68;100.00;99858.00;5090624;28;20126;-50
2022/07/08 01:51:32;;;;;;;5.55;2.45;;;;;;;14.82;100.00;99850.66;5090672;28;20048;-49
2022/07/08 01:53:58;;;;;;;5.07;2.90;;;;;;;14.76;100.00;99854.13;5090700;28;20048;-51
2022/07/08 01:56:25;;;;;;;6.45;3.53;;;;;;;14.89;100.00;99863.75;5090413;28;20083;-48
2022/07/08 01:58:51;;;;;;;3.33;2.40;;;;;;;14.87;100.00;99857.84;5090673;28;20134;-47
2022/07/08 02:01:17;;;;;;;6.95;2.53;;;;;;;14.97;100.00;99864.66;5090676;28;20048;-48
2022/07/08 02:03:44;;;;;;;5.43;2.67;;;;;;;15.06;100.00;99865.94;5090411;28;20086;-49
2022/07/08 02:06:10;;;;;;;8.30;2.90;;;;;;;15.07;100.00;99869.50;5090474;28;20124;-50
2022/07/08 02:08:36;;;;;;;6.72;2.70;;;;;;;15.16;100.00;99871.94;5090755;28;20072;-48
2022/07/08 02:13:48;;;;;;;;;;;;;;;15.15;100.00;99876.66;5091154;28;20576;-47
2022/07/08 02:16:14;;;;;;;6.80;3.90;;;;;;;15.09;100.00;99877.38;5090207;28;20449;-47
2022/07/08 02:18:41;;;;;;;5.68;2.78;;;;;;;15.23;100.00;99874.78;5090245;28;20052;-47
2022/07/08 02:21:07;;;;;;;4.93;2.88;;;;;;;15.26;100.00;99880.34;5090591;28;20236;-48
2022/07/08 02:23:33;;;;;;;3.15;2.50;;;;;;;15.34;100.00;99878.44;5090435;28;20098;-52
2022/07/08 02:25:59;;;;;;;4.40;2.80;;;;;;;15.41;100.00;99875.75;5090200;28;20154;-52
2022/07/08 02:28:26;;;;;;;7.50;3.60;;;;;;;15.45;100.00;99879.34;5090406;28;20476;-51
2022/07/08 02:30:52;;;;;;;4.82;2.97;;;;;;;15.46;100.00;99885.66;5090084;28;20055;-48
2022/07/08 02:33:19;;;;;;;5.60;3.30;;;;;;;15.51;100.00;99888.88;5090140;28;20093;-52
2022/07/08 02:35:45;;;;;;;9.77;2.90;;;;;;;15.58;100.00;99893.66;5090295;28;20070;-51
2022/07/08 02:38:11;;;;;;;7.05;3.47;;;;;;;15.59;100.00;99900.00;5089961;28;20079;-51
2022/07/08 02:40:37;;;;;;;7.00;2.50;;;;;;;15.59;100.00;99902.75;5090200;28;20134;-51
2022/07/08 02:43:09;;;;;;;4.68;3.30;;;;;;;15.66;100.00;99906.44;5089866;28;20059;-52
2022/07/08 02:45:37;;;;;;;5.30;3.40;;;;;;;15.72;100.00;99907.66;5090099;28;20458;-50
2022/07/08 02:48:04;;;;;;;9.70;3.95;;;;;;;15.71;100.00;99899.75;5090042;28;20508;-52
2022/07/08 02:50:31;;;;;;;5.20;2.17;;;;;;;15.77;100.00;99898.22;5090108;28;20547;-51
2022/07/08 02:52:57;;;;;;;5.72;3.20;;;;;;;15.76;100.00;99904.91;5090060;28;20167;-52
2022/07/08 02:55:23;;;;;;;4.00;2.90;;;;;;;15.82;100.00;99897.84;5090134;28;20495;-51
2022/07/08 02:57:49;;;;;;;5.18;3.25;;;;;;;15.85;100.00;99896.31;5089526;28;20064;-51
2022/07/08 03:00:16;;;;;;;3.55;2.20;;;;;;;15.99;100.00;99908.28;5089717;28;20560;-50
2022/07/08 03:02:42;;;;;;;6.32;3.13;;;;;;;15.98;100.00;99906.69;5089942;28;20502;-51
2022/07/08 03:05:10;;;;;;;2.90;2.60;;;;;;;16.04;100.00;99906.34;5089604;28;20101;-48
2022/07/08 03:07:36;;;;;;;5.32;3.08;;;;;;;16.02;100.00;99906.72;5089515;28;20116;-48
2022/07/08 03:10:03;;;;;;;2.92;2.47;;;;;;;16.05;100.00;99913.44;5089510;28;20185;-48
2022/07/08 03:12:29;;;;;;;7.50;2.78;;;;;;;16.16;100.00;99919.84;5089809;28;20142;-50
2022/07/08 03:14:56;;;;;;;3.45;2.70;;;;;;;16.13;100.00;99915.91;5089814;28;20083;-48
2022/07/08 03:17:22;;;;;;;9.48;2.97;;;;;;;16.29;100.00;99915.59;5092281;28;20135;-48
2022/07/08 03:19:48;;;;;;;5.93;2.65;;;;;;;16.24;100.00;99919.53;5093051;28;20084;-48
2022/07/08 03:22:15;;;;;;;4.55;2.70;;;;;;;16.34;100.00;99915.25;5093164;28;20434;-48
2022/07/08 03:24:41;;;;;;;4.15;2.38;;;;;;;16.36;100.00;99915.66;5093136;28;20044;-48
2022/07/08 03:27:08;;;;;;;7.60;2.88;;;;;;;16.43;100.00;99924.00;5092809;28;20147;-48
2022/07/08 03:29:34;;;;;;;5.20;2.50;;;;;;;16.42;100.00;99914.09;5093134;28;20048;-50
2022/07/08 03:32:00;;;;;;;4.32;2.63;;;;;;;16.52;100.00;99922.84;5093143;28;20063;-47
2022/07/08 03:34:27;;;;;;;3.90;2.45;;;;;;;16.52;100.00;99925.63;5093202;28;20101;-48
2022/07/08 03:36:53;;;;;;;4.22;2.40;;;;;;;16.55;100.00;99925.63;5092607;28;20097;-47
2022/07/08 03:39:20;;;;;;;5.95;2.72;;;;;;;16.47;100.00;99921.25;5093063;28;20093;-47
2022/07/08 03:41:46;;;;;;;3.53;2.53;;;;;;;16.52;100.00;99920.09;5092675;28;20052;-48
2022/07/08 03:44:12;;;;;;;6.35;2.60;;;;;;;16.52;100.00;99928.38;5092690;28;20052;-48
2022/07/08 03:46:38;;;;;;;2.28;2.03;;;;;;;16.56;100.00;99923.66;5092537;28;20130;-48
2022/07/08 03:49:04;;;;;;;3.85;2.53;;;;;;;16.71;100.00;99928.91;5092623;28;20069;-48
2022/07/08 03:51:30;;;;;;;8.07;2.30;;;;;;;16.71;100.00;99923.34;5092542;28;20058;-48
2022/07/08 03:53:57;;;;;;;3.15;2.10;;;;;;;16.91;100.00;99881.53;5092536;28;20048;-48
2022/07/08 03:56:24;;;;;;;3.08;1.60;;;;;;;17.00;100.00;99867.34;5092281;28;20048;-48
2022/07/08 03:58:50;;;;;;;4.15;2.33;;;;;;;17.10;100.00;99823.03;5092537;28;20486;-49
2022/07/08 04:01:17;;;;;;;4.32;2.35;;;;;;;17.15;100.00;99797.69;5092725;28;20135;-48
2022/07/08 04:03:43;;;;;;;2.75;2.13;;;;;;;17.16;100.00;99768.81;5092445;28;20483;-48
2022/07/08 04:06:10;;;;;;;4.55;2.03;;;;;;;17.16;100.00;99743.09;5092556;28;20146;-51
2022/07/08 04:08:36;;;;;;;4.03;2.10;;;;;;;17.30;100.00;99758.94;5092256;28;20113;-49
2022/07/08 04:11:02;;;;;;;3.25;2.08;;;;;;;17.40;100.00;99675.78;5092234;28;20052;-49
2022/07/08 04:13:29;;;;;;;5.15;2.20;;;;;;;17.40;100.00;99625.91;5092484;28;20048;-49
2022/07/08 04:15:56;;;;;;;4.75;2.10;;;;;;;17.58;100.00;99639.69;5092172;28;20550;-48
2022/07/08 04:18:22;;;;;;;7.53;2.10;;;;;;;17.68;100.00;99556.91;5092554;28;20052;-48
2022/07/08 04:20:48;;;;;;;6.72;2.45;;;;;;;17.74;100.00;99491.50;5092290;28;20048;-49
2022/07/08 04:23:15;;;;;;;3.35;2.28;;;;;;;17.76;100.00;99475.25;5092523;28;20052;-49
2022/07/08 04:25:41;;;;;;;6.07;2.05;;;;;;;17.94;100.00;99477.94;5091953;28;20090;-50
2022/07/08 04:28:07;;;;;;;6.93;2.30;;;;;;;18.02;100.00;99421.19;5091191;28;20134;-51
2022/07/08 04:30:34;;;;;;;8.63;2.40;;;;;;;18.21;100.00;99314.41;5091822;28;20083;-49
2022/07/08 04:33:01;;;;;;;4.72;2.40;;;;;;;18.29;100.00;99110.53;5091926;28;20546;-49
2022/07/08 04:35:27;;;;;;;3.35;1.60;;;;;;;18.46;100.00;99076.22;5091844;28;20208;-51
2022/07/08 04:37:53;;;;;;;5.63;2.60;;;;;;;18.36;100.00;99079.94;5091777;28;20522;-49
2022/07/08 04:40:20;;;;;;;4.00;2.20;;;;;;;18.50;100.00;99031.75;5091758;28;20148;-50
2022/07/08 04:42:46;;;;;;;6.88;2.33;;;;;;;18.52;100.00;98921.06;5091639;28;20143;-48
2022/07/08 04:45:13;;;;;;;5.82;2.05;;;;;;;18.60;100.00;98811.44;5091608;28;20149;-49
2022/07/08 04:47:40;;;;;;;6.07;2.30;;;;;;;18.97;100.00;98823.41;5091878;28;20052;-47
2022/07/08 04:50:06;;;;;;;7.13;2.35;;;;;;;19.04;100.00;98764.91;5091778;28;20043;-48
2022/07/08 04:52:33;;;;;;;5.35;1.83;;;;;;;19.67;100.00;98685.97;5091499;28;20052;-47
2022/07/08 04:54:59;;;;;;;7.22;2.40;;;;;;;19.75;100.00;98606.69;5091954;28;20139;-47
2022/07/08 04:57:25;;;;;;;5.70;2.10;;;;;;;19.78;100.00;98613.38;5091207;28;20052;-47
2022/07/08 04:59:52;;;;;;;5.60;2.00;;;;;;;20.27;100.00;98557.47;5091796;28;20065;-48
2022/07/08 05:02:18;;;;;;;7.22;2.50;;;;;;;21.45;100.00;98492.22;5091285;28;20579;-49
2022/07/08 05:04:45;;;;;;;4.65;2.33;;;;;;;21.61;100.00;98439.81;5091518;28;20052;-48
2022/07/08 05:07:11;;;;;;;5.63;2.20;;;;;;;21.78;100.00;98445.94;5090985;28;20430;-47
2022/07/08 05:09:37;;;;;;;6.68;2.20;;;;;;;21.64;100.00;98438.13;5091302;28;20408;-48
2022/07/08 05:12:05;;;;;;;6.90;2.20;;;;;;;21.99;100.00;98437.94;5091203;28;20048;-49
2022/07/08 05:14:31;;;;;;;16.38;3.88;;;;;;;22.35;100.00;98437.31;5091099;28;20143;-51
2022/07/08 05:16:57;;;;;;;6.03;2.15;;;;;;;22.48;100.00;98454.69;5091307;28;20559;-48
2022/07/08 05:19:23;;;;;;;6.00;1.83;;;;;;;22.45;100.00;98461.22;5090888;28;20048;-61
2022/07/08 05:21:50;;;;;;;6.70;2.10;;;;;;;22.52;100.00;98471.31;5091340;28;20056;-52
2022/07/08 05:24:16;;;;;;;4.68;2.00;;;;;;;22.52;100.00;98472.06;5091062;28;20056;-50
2022/07/08 05:26:43;;;;;;;5.40;1.75;;;;;;;23.11;100.00;98490.81;5091212;28;20490;-56
2022/07/08 05:29:09;;;;;;;4.88;1.80;;;;;;;22.81;100.00;98500.84;5090929;28;20487;-53
2022/07/08 05:31:35;;;;;;;4.72;1.70;;;;;;;22.58;100.00;98477.06;5091076;28;20484;-53
2022/07/08 05:34:02;;;;;;;4.20;1.85;;;;;;;22.24;100.00;98495.59;5090630;28;20150;-51
2022/07/08 05:36:28;;;;;;;5.47;1.92;;;;;;;22.28;100.00;98530.50;5090729;28;20135;-54
2022/07/08 05:38:55;;;;;;;5.82;1.52;;;;;;;22.40;100.00;98511.34;5090480;28;20051;-54
2022/07/08 05:41:21;;;;;;;5.03;1.75;;;;;;;22.42;100.00;98517.22;5090612;28;20056;-53
2022/07/08 05:43:47;;;;;;;7.35;1.85;;;;;;;22.29;100.00;98476.25;5090897;28;20052;-55
2022/07/08 05:46:14;;;;;;;7.15;2.05;;;;;;;22.16;100.00;98474.78;5090768;28;20056;-51
2022/07/08 05:48:40;;;;;;;6.28;3.40;;;;;;;22.14;100.00;98444.50;5091281;28;20954;-56
2022/07/08 05:51:06;;;;;;;4.00;1.88;;;;;;;22.20;100.00;98453.09;5090877;28;20043;-51
2022/07/08 05:53:33;;;;;;;6.78;1.80;;;;;;;22.14;100.00;98466.06;5091007;28;20059;-51
2022/07/08 05:56:00;;;;;;;4.03;1.60;;;;;;;22.38;100.00;98472.69;5090441;28;20501;-51
2022/07/08 05:58:26;;;;;;;3.78;1.75;;;;;;;22.46;100.00;98498.28;5090859;28;20058;-50
2022/07/08 06:00:52;;;;;;;5.47;1.55;;;;;;;22.53;100.00;98479.25;5090423;28;20052;-51
2022/07/08 06:03:18;;;;;;;4.78;1.85;;;;;;;22.50;100.00;98485.75;5090589;28;20063;-51
2022/07/08 06:05:45;;;;;;;4.53;1.55;;;;;;;22.57;100.00;98472.72;5090159;28;20089;-51
2022/07/08 06:08:11;;;;;;;5.07;1.90;;;;;;;22.70;100.00;98499.28;5090208;28;20147;-51
2022/07/08 06:10:37;;;;;;;4.50;1.60;;;;;;;22.99;100.00;98542.81;5090375;28;20106;-52
2022/07/08 06:13:04;;;;;;;4.65;1.60;;;;;;;23.32;100.00;98582.13;5090397;28;20151;-53
2022/07/08 06:15:30;;;;;;;6.35;1.75;;;;;;;22.97;100.00;98573.25;5090118;28;20568;-54
2022/07/08 06:17:57;;;;;;;3.55;1.48;;;;;;;23.31;100.00;98597.38;5089981;28;20108;-54
2022/07/08 06:20:23;;;;;;;5.97;1.83;;;;;;;23.67;100.00;98615.41;5090364;28;20048;-54
2022/07/08 06:22:50;;;;;;;3.42;1.70;;;;;;;23.80;100.00;98588.06;5090052;28;20066;-54
2022/07/08 06:25:16;;;;;;;5.68;1.70;;;;;;;23.93;100.00;98608.25;5090317;28;20384;-52
2022/07/08 06:27:43;;;;;;;4.63;1.50;;;;;;;24.05;100.00;98693.31;5089997;28;20139;-57
2022/07/08 06:30:11;;;;;;;7.35;1.58;;;;;;;23.77;100.00;98614.19;5090109;28;20134;-57
2022/07/08 06:32:37;;;;;;;8.07;3.63;;;;;;;24.17;100.00;98624.38;5089865;28;20127;-57
2022/07/08 06:35:04;;;;;;;4.97;2.47;;;;;;;24.27;100.00;98659.50;5090022;28;20093;-53
2022/07/08 06:37:30;;;;;;;4.18;1.60;;;;;;;24.49;100.00;98652.94;5089814;28;20048;-54
2022/07/08 06:39:56;;;;;;;5.57;2.08;;;;;;;24.54;100.00;98663.50;5089661;28;20081;-54
2022/07/08 06:42:23;;;;;;;17.48;2.20;;;;;;;25.10;100.00;98653.59;5089981;28;20052;-57
2022/07/08 06:44:49;;;;;;;5.93;1.77;;;;;;;25.86;100.00;98659.81;5089869;28;20055;-57
2022/07/08 06:47:16;;;;;;;2.80;1.58;;;;;;;26.72;100.00;98826.69;5090049;28;20048;-56
2022/07/08 06:49:42;;;;;;;5.00;1.60;;;;;;;27.29;100.00;98865.03;5089831;28;20116;-56
2022/07/08 06:52:08;;;;;;;5.15;1.40;;;;;;;27.16;100.00;98843.63;5089116;28;20048;-56
2022/07/08 06:54:37;;;;;;;3.75;1.40;;;;;;;26.65;100.00;98881.25;5089625;28;20076;-55
2022/07/08 06:57:05;;;;;;;4.93;1.45;;;;;;;26.19;100.00;98872.38;5089839;28;20052;-50
2022/07/08 06:59:31;;;;;;;4.38;1.50;;;;;;;26.05;100.00;98845.78;5089544;28;20043;-51
2022/07/08 07:01:59;;;;;;;4.32;2.80;;;;;;;26.24;100.00;98838.03;5089516;28;20048;-54
2022/07/08 07:04:27;;;;;;;3.47;1.40;;;;;;;26.37;100.00;98764.69;5089583;28;20087;-51
2022/07/08 07:06:54;;;;;;;3.90;1.65;;;;;;;26.75;100.00;98814.47;5089285;28;20044;-54
2022/07/08 07:09:20;;;;;;;5.07;1.60;;;;;;;26.87;100.00;98885.78;5089712;28;20527;-59
2022/07/08 07:11:46;;;;;;;3.72;1.30;;;;;;;26.55;100.00;98904.31;5089357;28;20612;-55
2022/07/08 07:14:12;;;;;;;8.35;1.95;;;;;;;25.32;100.00;98908.63;5089736;28;20058;-56
2022/07/08 07:16:39;;;;;;;7.13;1.90;;;;;;;26.37;100.00;98920.03;5089134;28;20504;-56
2022/07/08 07:19:05;;;;;;;11.75;2.47;;;;;;;26.46;100.00;98928.41;5089646;28;20052;-57
2022/07/08 07:21:32;;;;;;;6.80;1.80;;;;;;;26.59;100.00;98882.41;5089356;28;20139;-54
2022/07/08 07:23:58;;;;;;;5.43;1.90;;;;;;;26.64;100.00;98862.84;5089581;28;20083;-56
2022/07/08 07:26:24;;;;;;;7.55;1.75;;;;;;;26.68;100.00;98848.59;5089134;28;20141;-56
2022/07/08 07:28:51;;;;;;;5.05;1.70;;;;;;;27.10;100.00;98873.66;5089249;28;20134;-55
2022/07/08 07:31:17;;;;;;;4.05;2.10;;;;;;;26.82;100.00;98875.19;5088725;28;20044;-62
2022/07/08 07:33:43;;;;;;;6.05;2.53;;;;;;;26.98;100.00;98867.06;5088635;28;20514;-55
2022/07/08 07:36:10;;;;;;;7.25;2.30;;;;;;;26.93;100.00;98796.66;5089082;28;20535;-53
2022/07/08 07:38:37;;;;;;;6.88;2.08;;;;;;;27.07;100.00;98828.84;5088934;28;20059;-53
2022/07/08 07:41:03;;;;;;;5.65;2.60;;;;;;;26.95;100.00;98913.03;5089080;28;20143;-55
2022/07/08 07:43:29;;;;;;;4.13;1.60;;;;;;;26.98;100.00;98895.19;5089107;28;20059;-52
2022/07/08 07:45:56;;;;;;;5.63;1.50;;;;;;;27.09;100.00;98914.31;5089378;28;20052;-59
2022/07/08 07:48:22;;;;;;;8.10;1.63;;;;;;;27.54;100.00;98937.63;5088961;28;20550;-61
2022/07/08 07:50:48;;;;;;;6.50;1.92;;;;;;;28.05;100.00;98880.03;5089461;28;20541;-61
2022/07/08 07:53:14;;;;;;;5.75;1.70;;;;;;;28.76;100.00;98936.34;5089009;28;20047;-60
2022/07/08 07:55:41;;;;;;;4.35;1.40;;;;;;;27.91;100.00;98940.81;5089081;28;20505;-60
2022/07/08 07:58:08;;;;;;;3.72;1.20;;;;;;;28.06;100.00;98895.69;5088736;28;20087;-56
2022/07/08 08:00:34;;;;;;;4.97;1.70;;;;;;;28.92;100.00;98961.13;5088735;28;20101;-53
2022/07/08 08:03:00;;;;;;;6.00;1.50;;;;;;;29.38;100.00;98979.34;5090852;28;20399;-55
2022/07/08 08:05:26;;;;;;;2.63;1.40;;;;;;;28.64;100.00;98994.63;5092158;28;20062;-56
2022/07/08 08:07:53;;;;;;;2.85;1.42;;;;;;;27.74;100.00;99007.34;5092535;28;20048;-61
2022/07/08 08:10:19;;;;;;;7.07;2.08;;;;;;;27.29;100.00;98915.69;5092048;28;20525;-61
2022/07/08 08:12:46;;;;;;;7.95;2.10;;;;;;;26.47;100.00;98910.31;5092550;28;20075;-63
2022/07/08 08:15:12;;;;;;;4.28;1.73;;;;;;;27.02;100.00;98892.19;5091912;28;20073;-62
2022/07/08 08:17:40;;;;;;;3.70;2.05;;;;;;;26.42;100.00;98941.84;5091900;28;20105;-53
2022/07/08 08:20:08;;;;;;;2.72;1.48;;;;;;;26.32;100.00;98903.06;5091906;28;20052;-53
2022/07/08 08:22:34;;;;;;;4.35;1.52;;;;;;;25.93;100.00;98875.69;5092106;28;20083;-60
2022/07/08 08:25:00;;;;;;;3.60;1.67;;;;;;;25.69;100.00;98870.00;5091732;28;20143;-60
2022/07/08 08:27:27;;;;;;;9.73;1.98;;;;;;;25.59;100.00;98919.81;5091896;28;20490;-60
2022/07/08 08:29:54;;;;;;;6.53;1.75;;;;;;;25.14;100.00;98929.09;5091678;28;20120;-59
2022/07/08 08:32:20;;;;;;;3.67;1.52;;;;;;;25.14;100.00;98922.72;5091574;28;20108;-59
2022/07/08 08:34:46;;;;;;;4.32;1.70;;;;;;;24.82;100.00;98840.78;5091728;28;20054;-58
2022/07/08 08:37:13;;;;;;;6.40;1.80;;;;;;;25.47;100.00;98847.03;5091474;28;20052;-60
2022/07/08 08:39:40;;;;;;;6.75;2.00;;;;;;;26.85;100.00;98872.19;5091840;28;20079;-59
2022/07/08 08:42:07;;;;;;;11.45;1.88;;;;;;;27.82;100.00;98965.50;5091607;28;20082;-60
2022/07/08 08:44:33;;;;;;;2.70;1.25;;;;;;;27.12;100.00;98980.84;5091938;28;20060;-60
2022/07/08 08:47:03;;;;;;;5.47;1.27;;;;;;;26.28;100.00;98901.19;5091447;28;20257;-60
2022/07/08 08:49:34;;;;;;;6.47;1.73;;;;;;;27.53;100.00;98940.94;5091817;28;20048;-59
2022/07/08 08:52:04;;;;;;;6.32;1.50;;;;;;;28.60;100.00;98988.44;5091526;28;20098;-60
2022/07/08 08:54:33;;;;;;;5.40;1.42;;;;;;;28.81;100.00;99021.00;5091726;28;20056;-61
2022/07/08 08:57:01;;;;;;;6.05;1.70;;;;;;;28.29;100.00;99014.38;5091311;28;20181;-60
2022/07/08 08:59:28;;;;;;;6.65;1.65;;;;;;;27.37;100.00;98999.28;5091392;28;20078;-60
2022/07/08 09:01:55;;;;;;;4.35;1.50;;;;;;;26.75;100.00;98944.59;5091297;28;20048;-60
2022/07/08 09:04:23;;;;;;;3.65;1.38;;;;;;;25.97;100.00;98912.00;5091194;28;20052;-61
2022/07/08 09:06:49;;;;;;;3.70;1.63;;;;;;;25.61;100.00;98856.78;5091667;28;20054;-59
2022/07/08 09:09:15;;;;;;;4.43;1.60;;;;;;;25.35;100.00;98841.13;5091245;28;20051;-59
2022/07/08 09:11:44;;;;;;;2.20;1.42;;;;;;;24.96;100.00;98822.53;5091420;28;20082;-59
2022/07/08 09:14:15;;;;;;;5.68;1.92;;;;;;;24.62;100.00;98780.44;5090463;28;20048;-59
2022/07/08 09:16:43;;;;;;;7.38;1.60;;;;;;;24.47;100.00;98803.94;5091249;28;20044;-60
2022/07/08 09:19:13;;;;;;;5.40;1.65;;;;;;;24.40;100.00;98831.03;5091298;28;20105;-58
2022/07/08 09:21:41;;;;;;;5.88;1.45;;;;;;;24.40;100.00;98796.59;5091103;28;20566;-59
2022/07/08 09:24:17;;;;;;;6.80;1.67;;;;;;;24.62;100.00;98771.22;5090984;28;20056;-59
2022/07/08 09:26:44;;;;;;;13.07;8.18;;;;;;;24.59;100.00;98674.06;5091054;28;20052;-60
2022/07/08 09:29:10;;;;;;;7.65;5.25;;;;;;;25.03;100.00;98872.69;5091103;28;20048;-60
2022/07/08 09:31:38;;;;;;;4.80;1.70;;;;;;;26.14;100.00;98923.63;5091207;28;20058;-58
2022/07/08 09:34:10;;;;;;;4.55;1.38;;;;;;;26.79;100.00;98923.97;5090941;28;20051;-58
2022/07/08 09:36:44;;;;;;;4.68;1.60;;;;;;;25.96;100.00;98944.94;5090664;28;20054;-58
2022/07/08 09:39:22;;;;;;;3.67;1.60;;;;;;;26.28;100.00;98940.53;5090999;28;20051;-55
2022/07/08 09:41:48;;;;;;;5.65;1.48;;;;;;;27.08;100.00;98971.84;5090746;28;20116;-56
2022/07/08 09:44:15;;;;;;;4.20;1.20;;;;;;;27.97;100.00;99025.41;5090657;28;20044;-56
2022/07/08 09:46:41;;;;;;;4.63;1.52;;;;;;;28.05;100.00;99029.38;5090668;28;20056;-56
2022/07/08 09:49:25;;;;;;;2.83;1.30;;;;;;;29.21;100.00;99029.97;5090669;28;20048;-56
2022/07/08 09:51:52;;;;;;;;;;;;;;;28.65;100.00;99038.50;5090960;28;20515;-56
2022/07/08 09:54:20;;;;;;;2.22;1.42;;;;;;;28.97;100.00;99047.88;5090437;28;20031;-56
2022/07/08 09:56:57;;;;;;;5.07;1.42;;;;;;;29.79;100.00;99050.63;5090332;28;20084;-55
2022/07/08 09:59:23;;;;;;;3.45;1.10;;;;;;;28.75;100.00;99056.84;5090318;28;20052;-57
2022/07/08 10:01:51;;;;;;;5.47;1.40;;;;;;;28.74;100.00;99043.22;5090619;28;20051;-57
2022/07/08 10:04:18;;;;;;;3.15;1.40;;;;;;;28.31;100.00;99040.03;5090290;28;20083;-57
2022/07/08 10:06:45;;;;;;;1.92;1.20;;;;;;;27.31;100.00;99037.03;5090186;28;20507;-56
2022/07/08 10:09:12;;;;;;;3.58;1.15;;;;;;;27.06;100.00;99047.53;5090133;28;20063;-56
2022/07/08 10:11:38;;;;;;;3.53;1.30;;;;;;;27.11;100.00;99026.38;5090265;28;20075;-56
2022/07/08 10:14:05;;;;;;;4.45;1.35;;;;;;;28.22;100.00;99023.22;5090187;28;20130;-57
2022/07/08 10:16:33;;;;;;;3.65;1.40;;;;;;;28.41;100.00;99018.94;5089845;28;20084;-58
2022/07/08 10:19:02;;;;;;;2.72;1.08;;;;;;;29.13;100.00;99003.47;5090203;28;20528;-57
2022/07/08 10:21:30;;;;;;;6.05;1.40;;;;;;;28.95;100.00;99012.97;5089955;28;20064;-56
2022/07/08 10:23:57;;;;;;;2.97;1.30;;;;;;;28.80;100.00;98984.84;5089986;28;20054;-55
2022/07/08 10:26:28;;;;;;;4.60;1.40;;;;;;;28.04;100.00;98979.94;5088784;28;20056;-56
2022/07/08 10:29:03;;;;;;;6.07;1.50;;;;;;;27.39;100.00;98967.81;5090125;28;20105;-56
2022/07/08 10:31:30;;;;;;;2.55;1.25;;;;;;;26.45;100.00;98942.94;5089810;28;20079;-56
2022/07/08 10:34:00;;;;;;;8.00;1.73;;;;;;;26.31;100.00;98902.28;5089774;28;20105;-56
2022/07/08 10:36:26;;;;;;;127.55;16.45;;;;;;;25.83;100.00;98857.34;5089730;28;20051;-56
2022/07/08 10:38:55;;;;;;;15.65;3.92;;;;;;;25.75;100.00;98870.91;5089984;28;20051;-56
2022/07/08 10:41:22;;;;;;;46.85;7.05;;;;;;;25.49;100.00;98887.41;5089748;28;20487;-55
2022/07/08 10:43:53;;;;;;;11.23;1.58;;;;;;;24.92;100.00;98881.59;5089751;28;20051;-55
2022/07/08 10:46:20;;;;;;;2.55;1.23;;;;;;;24.59;100.00;98875.84;5089854;28;20074;-56
2022/07/08 10:48:51;;;;;;;6.18;2.40;;;;;;;25.59;100.00;98832.78;5089830;28;20093;-57
2022/07/08 10:51:57;;;;;;;4.68;1.38;;;;;;;26.23;100.00;98960.88;5089691;28;20044;-56
2022/07/08 10:54:40;;;;;;;1.77;1.10;;;;;;;26.80;100.00;98942.41;5089896;28;20044;-56
2022/07/08 10:57:15;;;;;;;3.05;1.20;;;;;;;26.09;100.00;98972.03;5089361;28;20094;-57
2022/07/08 11:00:00;;;;;;;3.90;1.20;;;;;;;26.36;100.00;98977.50;5089913;28;20113;-56
2022/07/08 11:02:28;;;;;;;3.50;1.27;;;;;;;26.11;100.00;98992.78;5089540;28;20052;-57
2022/07/08 11:04:54;;;;;;;2.10;1.30;;;;;;;25.08;100.00;98961.81;5089685;28;20055;-56
2022/07/08 11:07:26;;;;;;;1.88;1.25;;;;;;;25.06;100.00;98939.06;5089302;28;20591;-57
2022/07/08 11:09:54;;;;;;;3.72;1.30;;;;;;;25.16;100.00;98940.66;5089401;28;20108;-53
2022/07/08 11:12:22;;;;;;;4.75;1.40;;;;;;;25.48;100.00;98955.22;5089506;28;20044;-56
2022/07/08 11:14:50;;;;;;;3.58;1.27;;;;;;;25.54;100.00;98970.19;5089338;28;20052;-56
2022/07/08 11:17:17;;;;;;;5.82;1.85;;;;;;;25.89;100.00;98967.75;5089214;28;20139;-56
2022/07/08 11:19:44;;;;;;;3.47;1.20;;;;;;;25.60;100.00;98982.31;5089039;28;20560;-55
2022/07/08 11:22:11;;;;;;;1.75;1.10;;;;;;;25.69;100.00;98978.69;5089123;28;20052;-57
2022/07/08 11:24:38;;;;;;;3.05;1.13;;;;;;;25.75;100.00;98976.81;5089109;28;20098;-55
2022/07/08 11:27:05;;;;;;;2.75;0.90;;;;;;;25.44;100.00;99003.09;5089215;28;20098;-56